Time;durP1;ratioP1;P1;durP2;ratioP2;P2;SDS_P1;SDS_P2;PMS_P1;PMS_P2;Temp;Humidity;BMP_temperature;BMP_pressure;BME280_temperature;BME280_humidity;BME280_pressure;Samples;Min_cycle;Max_cycle;Signal;HPM_P1;HPM_P2
2023/12/09 06:17:39;;;;;;;11.88;5.00;;;;;;;-10.52;56.21;101391.56;6232583;22;19942;-83
2023/12/09 06:20:08;;;;;;;8.27;3.35;;;;;;;-10.84;56.18;101359.81;6245728;23;20044;-86
2023/12/09 06:23:09;;;;;;;12.00;6.57;;;;;;;-10.35;56.76;101439.56;6246250;23;20007;-84
2023/12/09 06:36:31;;;;;;;12.00;4.10;;;;;;;-10.45;56.65;101419.16;6242092;23;20004;-93
2023/12/09 06:39:26;;;;;;;10.07;5.72;;;;;;;-10.28;56.52;101422.25;6215819;23;20004;-90
2023/12/09 06:52:01;;;;;;;17.60;7.68;;;;;;;-10.18;55.97;101415.19;6189933;22;20088;-92
2023/12/09 06:54:40;;;;;;;12.85;6.75;;;;;;;-10.24;56.61;101400.66;6214810;23;20020;-90
2023/12/09 07:07:42;;;;;;;20.50;6.93;;;;;;;-10.17;56.07;101340.16;5997204;23;20059;-86
2023/12/09 07:10:21;;;;;;;16.10;6.72;;;;;;;-9.85;55.72;101387.72;5958708;24;20000;-92
2023/12/09 07:13:00;;;;;;;13.75;5.97;;;;;;;-10.18;55.42;101335.84;6003982;23;20004;-87
2023/12/09 07:16:10;;;;;;;12.60;6.40;;;;;;;-9.76;55.12;101375.53;6004690;24;20008;-86
2023/12/09 07:18:45;;;;;;;13.60;5.43;;;;;;;-10.28;54.79;101317.31;6006043;23;20067;-90
2023/12/09 07:25:09;;;;;;;12.80;6.55;;;;;;;-10.63;54.61;101253.31;5998553;23;20043;-94
2023/12/09 07:27:44;;;;;;;15.60;7.00;;;;;;;-9.90;54.80;101326.41;6001029;24;20000;-81
2023/12/09 07:30:14;;;;;;;19.15;8.15;;;;;;;-10.02;54.18;101299.22;5980159;24;20548;-89
2023/12/09 07:32:42;;;;;;;17.30;8.45;;;;;;;-9.82;54.61;101336.38;5980472;24;20035;-90
2023/12/09 07:35:10;;;;;;;19.42;8.07;;;;;;;-9.56;55.44;101379.13;5979315;24;20008;-85
2023/12/09 07:37:36;;;;;;;21.20;9.07;;;;;;;-9.46;54.26;101375.56;6027056;23;20113;-84
2023/12/09 07:40:15;;;;;;;16.95;6.57;;;;;;;-9.67;55.58;101358.03;6105795;23;20029;-84
2023/12/09 07:42:57;;;;;;;7.70;4.88;;;;;;;-10.08;55.67;101301.53;6112892;23;20216;-85
2023/12/09 07:45:24;;;;;;;9.65;3.75;;;;;;;-10.54;54.56;101253.41;6197807;23;20021;-86
2023/12/09 07:48:09;;;;;;;17.85;8.05;;;;;;;-9.82;54.56;101344.31;6204729;23;20053;-89
2023/12/09 07:50:36;;;;;;;12.65;6.20;;;;;;;-10.07;53.87;101309.31;6158432;23;20100;-87
2023/12/09 07:53:04;;;;;;;18.77;8.13;;;;;;;-9.64;53.74;101371.00;6155375;23;20031;-91
2023/12/09 07:56:06;;;;;;;16.73;7.47;;;;;;;-9.62;54.05;101382.31;6134816;23;20024;-91
2023/12/09 07:58:33;;;;;;;17.20;8.23;;;;;;;-10.31;54.49;101275.25;6156738;23;20015;-86
2023/12/09 08:01:02;;;;;;;17.20;8.18;;;;;;;-9.49;54.38;101389.06;6205650;23;20023;-89
2023/12/09 08:04:19;;;;;;;17.23;7.82;;;;;;;-9.78;53.49;101328.03;6207249;23;20056;-88
2023/12/09 08:06:56;;;;;;;13.75;7.07;;;;;;;-9.43;53.78;101378.91;6180910;23;20005;-86
2023/12/09 08:09:35;;;;;;;20.42;7.65;;;;;;;-9.67;53.75;101318.31;6174809;23;20044;-90
2023/12/09 08:12:27;;;;;;;8.32;4.55;;;;;;;-9.92;53.01;101333.66;6146881;23;20049;-87
2023/12/09 08:14:58;;;;;;;13.68;7.63;;;;;;;-9.86;53.27;101324.38;6185029;23;20021;-89
2023/12/09 08:18:25;;;;;;;9.98;4.85;;;;;;;-9.55;53.45;101379.00;6214751;22;20001;-90
2023/12/09 08:21:21;;;;;;;12.43;6.00;;;;;;;-9.74;53.43;101310.91;6212526;22;20017;-88
2023/12/09 08:23:54;;;;;;;12.52;6.60;;;;;;;-9.29;52.63;101370.63;6184928;22;20005;-85
2023/12/09 08:26:46;;;;;;;18.42;7.90;;;;;;;-9.25;53.04;101342.88;6186816;23;20016;-84
2023/12/09 08:30:03;;;;;;;12.80;5.88;;;;;;;-9.11;52.54;101345.16;6192537;22;20001;-86
2023/12/09 08:32:48;;;;;;;17.42;7.45;;;;;;;-9.19;52.35;101355.59;6212632;22;20029;-87
2023/12/09 08:35:30;;;;;;;15.75;7.05;;;;;;;-9.20;52.27;101319.50;6214111;22;20073;-87
2023/12/09 08:38:42;;;;;;;26.35;6.97;;;;;;;-9.17;51.70;101327.16;6184773;23;20088;-84
2023/12/09 08:45:25;;;;;;;16.85;8.25;;;;;;;-9.23;52.38;101310.00;6155426;23;20025;-86
2023/12/09 08:47:54;;;;;;;15.88;6.55;;;;;;;-9.10;52.68;101316.88;6151902;23;20044;-83
2023/12/09 08:50:24;;;;;;;18.48;8.25;;;;;;;-8.85;52.19;101339.34;6177095;23;20078;-88
2023/12/09 08:53:02;;;;;;;24.60;8.82;;;;;;;-8.85;51.52;101334.06;6185095;23;20028;-85
2023/12/09 09:04:53;;;;;;;13.23;4.75;;;;;;;-9.57;51.54;101239.78;6219745;22;20014;-86
2023/12/09 10:28:01;;;;;;;18.83;8.60;;;;;;;-9.01;51.78;101265.69;6262693;22;20023;-84
2023/12/09 10:30:30;;;;;;;14.43;6.80;;;;;;;-9.08;51.56;101254.78;6158624;23;20044;-83
2023/12/09 10:33:15;;;;;;;18.65;7.55;;;;;;;-9.42;51.72;101203.19;6206558;23;20156;-85
2023/12/09 10:39:23;;;;;;;18.83;7.68;;;;;;;-9.49;52.49;101198.44;6102093;23;20101;-85
2023/12/09 10:42:14;;;;;;;21.55;8.25;;;;;;;-9.56;51.60;101164.72;6120620;23;20046;-86
2023/12/09 10:44:48;;;;;;;13.50;6.47;;;;;;;-9.10;51.60;101245.34;6094770;23;20022;-85
2023/12/09 10:48:11;;;;;;;13.13;6.43;;;;;;;-9.11;52.09;101241.81;6098846;23;20031;-85
2023/12/09 10:51:14;;;;;;;14.02;5.60;;;;;;;-9.83;52.32;101150.31;6073537;23;20022;-85
2023/12/09 10:54:17;;;;;;;15.93;5.97;;;;;;;-9.65;53.18;101191.97;6105807;23;20078;-84
2023/12/09 10:56:45;;;;;;;23.38;7.97;;;;;;;-9.50;52.96;101199.41;6125657;22;20028;-83
2023/12/09 11:00:26;;;;;;;13.18;5.78;;;;;;;-10.09;53.21;101114.72;6269637;23;20000;-84
2023/12/09 11:04:06;;;;;;;13.90;7.20;;;;;;;-9.33;53.20;101231.50;6243995;22;20020;-86
2023/12/09 11:10:28;;;;;;;14.15;6.57;;;;;;;-9.64;52.77;101136.25;6245076;23;20030;-84
2023/12/09 11:13:00;;;;;;;19.75;7.72;;;;;;;-9.61;52.89;101177.50;6263738;23;20018;-87
2023/12/09 11:19:00;;;;;;;15.07;7.10;;;;;;;-10.12;53.49;101138.78;6244121;23;20042;-84
2023/12/09 11:25:39;;;;;;;12.55;5.57;;;;;;;-9.50;54.04;101212.66;6174775;23;20021;-85
2023/12/09 11:28:14;;;;;;;17.60;5.63;;;;;;;-9.58;53.72;101217.78;6033008;23;20042;-86
2023/12/09 11:35:20;;;;;;;9.27;4.60;;;;;;;-9.76;54.02;101166.47;5982505;23;20012;-86
2023/12/09 11:38:37;;;;;;;6.15;3.78;;;;;;;-9.88;54.04;101171.03;5926300;24;20009;-86
2023/12/09 11:51:45;;;;;;;9.68;4.22;;;;;;;-9.87;55.06;101187.72;6269354;22;20020;-86
2023/12/09 12:04:10;;;;;;;12.30;6.25;;;;;;;-10.34;54.16;101089.59;6267900;22;20486;-86
2023/12/09 12:07:18;;;;;;;13.77;6.07;;;;;;;-9.75;53.87;101165.50;6164344;22;20016;-84
2023/12/09 12:09:45;;;;;;;9.23;4.72;;;;;;;-10.32;54.71;101096.44;6219449;23;20020;-85
2023/12/09 12:12:57;;;;;;;19.23;7.43;;;;;;;-9.49;54.88;101210.84;6280675;22;20012;-86
2023/12/09 12:31:11;;;;;;;10.45;4.47;;;;;;;-10.03;55.61;101204.09;6237166;22;20651;-87
2023/12/09 12:33:47;;;;;;;14.80;5.88;;;;;;;-10.17;56.15;101198.19;6241813;23;20025;-90
2023/12/09 12:36:50;;;;;;;10.40;4.47;;;;;;;-10.11;56.33;101201.28;6245228;22;20016;-87
2023/12/09 12:39:17;;;;;;;12.77;4.75;;;;;;;-10.47;56.09;101155.91;6207470;23;20021;-83
2023/12/09 12:44:46;;;;;;;17.95;6.18;;;;;;;-10.25;55.59;101176.88;6180567;23;20009;-87
2023/12/09 12:48:07;;;;;;;8.05;4.30;;;;;;;-10.05;56.02;101214.00;6180586;23;20048;-85
2023/12/09 12:51:50;;;;;;;10.52;4.43;;;;;;;-9.97;56.04;101198.28;6146337;23;19997;-84
2023/12/09 12:54:56;;;;;;;13.35;6.60;;;;;;;-9.99;56.00;101190.50;6177914;23;20069;-84
2023/12/09 12:57:26;;;;;;;10.27;5.45;;;;;;;-10.28;56.59;101142.78;6171963;23;20061;-86
2023/12/09 13:00:39;;;;;;;12.38;5.50;;;;;;;-9.95;56.25;101191.06;6133428;23;20009;-86
2023/12/09 13:04:30;;;;;;;11.32;6.53;;;;;;;-10.92;56.12;101050.56;5984642;23;20007;-85
2023/12/09 13:07:28;;;;;;;9.98;5.10;;;;;;;-10.17;55.93;101177.03;6033993;23;20076;-85
2023/12/09 13:10:20;;;;;;;15.55;6.43;;;;;;;-10.44;55.76;101137.16;6037430;23;20149;-83
2023/12/09 13:12:54;;;;;;;13.63;5.68;;;;;;;-10.49;55.93;101132.28;6012201;23;20028;-85
2023/12/09 13:16:22;;;;;;;29.63;5.90;;;;;;;-10.29;56.75;101196.66;6032258;23;19995;-82
2023/12/09 13:19:53;;;;;;;7.28;3.47;;;;;;;-10.24;56.21;101204.97;6138909;22;20020;-84
2023/12/09 13:29:04;;;;;;;6.20;4.03;;;;;;;-10.55;56.88;101153.09;6272573;22;20075;-85
2023/12/09 13:32:22;;;;;;;8.07;3.95;;;;;;;-10.41;57.32;101197.69;6244902;22;20015;-86
2023/12/09 13:35:02;;;;;;;7.85;3.85;;;;;;;-10.42;57.19;101196.03;6245960;23;20031;-84
2023/12/09 13:38:10;;;;;;;10.85;6.13;;;;;;;-10.70;56.64;101124.34;6273015;22;20004;-84
2023/12/09 13:45:13;;;;;;;7.38;4.82;;;;;;;-10.78;56.66;101129.47;6124706;23;20013;-86
2023/12/09 13:48:13;;;;;;;9.23;4.07;;;;;;;-10.75;56.88;101144.22;6153669;23;20014;-86
2023/12/09 13:51:04;;;;;;;8.18;3.83;;;;;;;-10.88;56.69;101131.22;6104526;23;20030;-84
2023/12/09 13:54:20;;;;;;;13.45;5.40;;;;;;;-11.24;56.37;101069.97;6134405;23;20105;-86
2023/12/09 13:57:03;;;;;;;8.15;4.50;;;;;;;-10.79;56.60;101154.22;6128569;23;20018;-85
2023/12/09 13:59:52;;;;;;;13.77;5.40;;;;;;;-10.93;56.77;101104.34;6151023;23;20032;-85
2023/12/09 14:19:24;;;;;;;6.22;3.13;;;;;;;-11.09;57.16;101118.03;6236423;23;19999;-85
2023/12/09 14:22:45;;;;;;;6.13;3.40;;;;;;;-10.94;57.23;101171.34;6207014;23;20031;-86
2023/12/09 14:25:50;;;;;;;11.80;4.45;;;;;;;-10.96;57.18;101179.41;6269091;22;20000;-85
2023/12/09 14:28:36;;;;;;;13.13;4.57;;;;;;;-10.92;56.98;101174.72;6195073;23;20031;-84
2023/12/09 14:31:41;;;;;;;9.38;5.22;;;;;;;-11.21;57.21;101127.78;6270351;22;20024;-85
2023/12/09 14:38:12;;;;;;;9.90;4.75;;;;;;;-12.11;57.19;101017.38;6234386;22;20029;-83
2023/12/09 14:41:13;;;;;;;11.05;4.60;;;;;;;-11.31;57.45;101148.00;6236760;23;20001;-87
2023/12/09 14:45:06;;;;;;;11.05;6.68;;;;;;;-11.47;58.00;101100.06;6240551;23;20020;-86
2023/12/09 14:48:27;;;;;;;8.00;5.18;;;;;;;-11.21;57.51;101156.81;6182832;23;20016;-86
2023/12/09 15:30:04;;;;;;;13.25;4.45;;;;;;;-10.57;56.90;101184.09;6222737;22;20020;-90
2023/12/09 15:55:36;;;;;;;;;;;;;;;;;;;;;
2023/12/09 16:17:14;;;;;;;12.00;4.97;;;;;;;-10.67;56.06;101105.59;6197171;23;20045;-91
2023/12/09 16:30:02;;;;;;;11.25;5.57;;;;;;;-10.70;56.65;101118.25;6260116;22;20111;-87
2023/12/09 16:33:23;;;;;;;10.95;4.93;;;;;;;-10.46;56.58;101134.66;6186572;23;20024;-88
2023/12/09 16:36:03;;;;;;;9.02;4.95;;;;;;;-10.65;56.65;101093.09;6217995;23;20050;-88
2023/12/09 16:38:35;;;;;;;8.77;4.63;;;;;;;-11.11;56.19;101019.59;6196960;23;20402;-89
2023/12/09 16:45:55;;;;;;;9.23;3.38;;;;;;;-10.45;56.88;101135.50;6270594;22;20131;-91
2023/12/09 16:48:29;;;;;;;9.63;4.93;;;;;;;-10.69;56.49;101061.81;6204678;23;20013;-90
2023/12/09 16:51:04;;;;;;;8.45;3.88;;;;;;;-10.90;56.31;101001.91;6210265;23;20040;-87
2023/12/09 16:53:34;;;;;;;13.55;5.20;;;;;;;-10.75;55.84;101026.16;6232586;23;20024;-84
2023/12/09 16:56:19;;;;;;;13.23;6.85;;;;;;;-10.73;55.37;101036.59;6229061;23;20047;-86
2023/12/09 16:58:46;;;;;;;6.93;4.40;;;;;;;-10.61;55.82;101061.13;6233437;23;20023;-87
2023/12/09 17:01:14;;;;;;;17.08;6.95;;;;;;;-10.06;55.81;101114.47;6180141;23;20032;-87
2023/12/09 17:03:53;;;;;;;13.98;6.32;;;;;;;-10.64;55.45;101035.81;6182563;23;20024;-87
2023/12/09 17:06:36;;;;;;;13.55;5.65;;;;;;;-10.11;55.78;101106.06;6233131;23;20020;-87
2023/12/09 17:09:17;;;;;;;11.45;5.35;;;;;;;-10.23;55.62;101082.41;6210513;23;20020;-88
2023/12/09 17:11:43;;;;;;;11.55;5.80;;;;;;;-10.41;55.35;101039.09;6182062;23;20099;-88
2023/12/09 17:15:06;;;;;;;7.72;4.05;;;;;;;-10.19;55.73;101109.41;6230347;23;20017;-86
2023/12/09 17:17:43;;;;;;;10.55;5.22;;;;;;;-10.14;55.73;101091.31;6206023;23;20017;-85
2023/12/09 17:20:12;;;;;;;11.15;4.15;;;;;;;-10.61;55.97;101038.19;6232069;23;20020;-84
2023/12/09 17:22:38;;;;;;;19.27;6.33;;;;;;;-10.22;55.96;101078.78;6201696;23;20064;-85
2023/12/09 17:25:06;;;;;;;10.40;5.72;;;;;;;-10.71;56.07;101019.66;6205936;23;20083;-86
2023/12/09 17:27:34;;;;;;;13.80;7.43;;;;;;;-11.04;55.81;100962.66;6236841;23;20072;-86
2023/12/09 17:30:17;;;;;;;14.98;6.50;;;;;;;-10.98;56.47;100977.13;6211994;23;20019;-87
2023/12/09 17:32:49;;;;;;;10.70;5.10;;;;;;;-10.46;55.71;101038.66;6203473;23;20009;-88
2023/12/09 17:35:42;;;;;;;10.75;4.40;;;;;;;-10.71;56.04;101002.97;6154167;23;20029;-85
2023/12/09 17:38:10;;;;;;;9.60;4.35;;;;;;;-10.90;56.05;101007.19;6176147;23;20017;-85
2023/12/09 17:40:38;;;;;;;7.30;3.13;;;;;;;-10.48;56.38;101089.00;6172798;23;20021;-85
2023/12/09 17:43:09;;;;;;;12.82;5.68;;;;;;;-10.36;56.45;101088.91;6177578;23;20166;-90
2023/12/09 17:45:55;;;;;;;11.35;5.10;;;;;;;-10.47;56.13;101072.16;6182182;23;20009;-83
2023/12/09 17:48:23;;;;;;;9.10;4.70;;;;;;;-10.93;56.15;101020.66;6156046;23;20016;-84
2023/12/09 17:50:52;;;;;;;9.35;4.88;;;;;;;-10.82;56.02;101038.25;6195996;23;20024;-89
2023/12/09 17:53:31;;;;;;;15.88;7.35;;;;;;;-11.14;57.12;101015.41;6150683;23;20024;-82
2023/12/09 17:56:05;;;;;;;7.18;3.95;;;;;;;-10.80;56.81;101083.84;6178361;23;20037;-86
2023/12/09 17:59:02;;;;;;;12.93;5.57;;;;;;;-11.12;56.68;101026.69;6200417;23;20472;-87
2023/12/09 18:01:36;;;;;;;11.55;4.55;;;;;;;-11.12;56.95;101042.53;6054888;23;20450;-88
2023/12/09 18:04:16;;;;;;;8.65;4.07;;;;;;;-10.90;56.93;101073.22;6158192;23;20101;-88
2023/12/09 18:06:55;;;;;;;15.15;6.18;;;;;;;-11.01;57.07;101031.06;6176814;23;20025;-82
2023/12/09 18:12:37;;;;;;;8.93;4.60;;;;;;;-10.44;56.61;101100.16;6233641;22;20029;-87
2023/12/09 18:15:20;;;;;;;15.05;5.15;;;;;;;-10.73;56.73;101063.00;6236556;23;20052;-87
2023/12/09 18:17:53;;;;;;;14.98;5.05;;;;;;;-10.98;56.58;101004.38;6206494;23;20021;-84
2023/12/09 18:20:22;;;;;;;15.80;6.65;;;;;;;-10.84;56.25;101026.13;6227515;23;20469;-82
2023/12/09 18:22:57;;;;;;;12.05;6.28;;;;;;;-10.85;56.38;101057.00;6206419;23;20017;-83
2023/12/09 18:25:58;;;;;;;7.78;3.60;;;;;;;-11.26;56.59;100978.66;6231140;23;20000;-85
2023/12/09 18:29:20;;;;;;;9.10;4.93;;;;;;;-11.30;56.57;100956.13;6240241;23;20000;-85
2023/12/09 18:34:51;;;;;;;10.32;3.90;;;;;;;-10.97;56.80;101021.88;6187556;23;20029;-85
2023/12/09 18:37:41;;;;;;;8.70;5.45;;;;;;;-10.76;56.74;101027.16;6146448;23;20134;-86
2023/12/09 18:40:37;;;;;;;7.22;3.20;;;;;;;-10.77;57.04;101077.47;6153306;23;20051;-85
2023/12/09 18:43:04;;;;;;;11.73;4.78;;;;;;;-11.30;57.40;100987.81;6148780;23;20529;-85
2023/12/09 18:45:56;;;;;;;10.27;5.93;;;;;;;-10.80;57.20;101080.38;6177718;23;20044;-87
2023/12/09 18:48:29;;;;;;;8.85;4.82;;;;;;;-10.84;57.06;101066.59;6153200;23;20013;-87
2023/12/09 18:51:46;;;;;;;12.52;6.25;;;;;;;-10.80;57.46;101068.00;6154591;23;20036;-88
2023/12/09 18:54:19;;;;;;;8.63;4.63;;;;;;;-11.26;57.65;100999.78;6156895;23;20024;-87
2023/12/09 18:56:47;;;;;;;6.97;4.72;;;;;;;-10.93;57.69;101076.13;6158163;23;20057;-87
2023/12/09 18:59:33;;;;;;;8.85;4.72;;;;;;;-10.84;57.75;101073.69;6181258;23;20001;-85
2023/12/09 19:07:46;;;;;;;10.65;4.85;;;;;;;-10.85;57.25;101061.44;6259976;22;20072;-87
2023/12/09 19:10:15;;;;;;;8.80;5.03;;;;;;;-10.84;57.54;101066.59;6192106;23;20020;-92
2023/12/09 19:12:48;;;;;;;12.27;5.70;;;;;;;-11.01;57.76;101017.84;6242039;23;20000;-87
2023/12/09 19:15:39;;;;;;;8.40;4.60;;;;;;;-10.81;57.14;101049.63;6213908;23;20000;-87
2023/12/09 19:18:07;;;;;;;9.98;5.07;;;;;;;-11.00;57.65;101023.97;6215837;23;20042;-87
2023/12/09 19:20:49;;;;;;;7.57;4.40;;;;;;;-11.57;57.53;100915.31;6240845;23;20004;-89
2023/12/09 19:23:25;;;;;;;10.18;5.45;;;;;;;-11.30;57.74;100954.34;6262609;23;20051;-87
2023/12/09 19:25:52;;;;;;;11.75;6.55;;;;;;;-11.04;57.96;100986.41;6239293;23;20080;-88
2023/12/09 19:28:22;;;;;;;6.20;2.92;;;;;;;-11.08;57.63;100970.97;6188526;23;20020;-89
2023/12/09 19:46:08;;;;;;;11.15;4.55;;;;;;;-10.58;57.23;101030.00;6225773;22;20032;-91
2023/12/09 23:33:37;;;;;;;19.80;7.10;;;;;;;-10.33;59.33;100781.97;6219332;23;20039;-90
